Etusivu
METAR-TAF:

METAR-TAF

Lentoasemat :

Kosin kansainvälinen lentoasema

Kos, Kreikka

Leveyspiiri: 36-47N, Pituuspiiri: 027-04E, korkeus merenpinnasta: 129 m

Tämänhetkinen sää

Tämä raportti tehtiin 31 minuuttia sitten, kello 07.50 UTC
Tuuli 12 kn luoteesta
Lämpötila 24°C
Kosteus 65%
Ilmanpaine 1013 hPa
Näkyvyys 10 km tai enemmän
ei pilviä alle 1500 m:ssä eikä cumulonimbus-pilviä

METAR: LGKO 210750Z 31012KT CAVOK 24/17 Q1013

Aika: 11:21 (08:21 UTC)

Sääennuste

Tämä raportti tehtiin 3 tuntia ja 21 minuuttia sitten, kello 05.00 UTC
Ennuste voimassa 21. päivästä klo 06 UTC - 22. päivään klo 06 UTC
Tuuli 10 kn pohjoisen/luoteesta
Näkyvyys 10 km tai enemmän
Muutamia pilviä 1800 ft:n korkeudessa

TAF: LGKO 210500Z 2106/2206 33010KT 9999 FEW018

Säähavainnot ja -ennusteet yli 4000 lentoasemalta (METAR- ja TAF-raportit).

Käytössä olevat sääasemat on merkitty karttaan keltaisilla ja punaisilla pisteillä.

Aseta hiiri pisteen päälle nähdäksesi sääaseman nimen.

Klikkaa sitten nähdäksesi säähavainnot ja -ennusteet.

Kartan vaihtaminen: klikkaa mustalla rastilla varustettuja vihreitä pisteitä, niin voit zoomata sisään; viivalla varustettua vihreää pistettä, niin voit zoomata ulos tai vihreitä nuolia, niin pääset viereisille kartoille.


METAR-TAF: